Aeroporto :
LOGIN :

Iscrizione | Disclaimer

   EN    FR    IT 

 










Sommario :    VFR   VFR Marginale   IFR   IFR Intensivo   IFR Molto Intensivo
Visibilità : 
Base nubi : 
>= 8 km
>= 3000ft
5 / 8 km
1000 / 3000 ft
1500m / 5 km
500 / 1000 ft
800 / 1500m
200 / 500 ft
< 800m
< 200 ft
Simboli :   Temporali  Nebbia  Neve Forte  Precipitazioni Forti  Vento > 20 kt
SIGMETs :   Varie  Temporali  Ghiacco  Turbolenza  Onda orograficha  Ceneri Vulcaniche






- Altitudine del aeroporto : 24 ft
- Codice IATA : UME


ESNU - Umeå

ULTIMO METAR :
  • 010920Z 31014KT CAVOK 03/M08 Q0997 R14/09//95

METARs OBSOLETI :
  • 010850Z 33014KT CAVOK 03/M08 Q0997 R14/09//95
  • 010820Z 31015KT CAVOK 03/M07 Q0997 R14/09//95
  • 010750Z 32015KT CAVOK 02/M06 Q0996 R14/09//95
  • 010720Z 32017KT CAVOK 02/M07 Q0996 R14/09//95
  • 010650Z 31014KT CAVOK 02/M06 Q0996 R14/09//95

TAF TAF ESNU
Valido dal 01 a 09 ore il 01 a 18 ore UTC


010830Z 0109/0118 30015KT CAVOK



MetMap, La meteo Aeronautica in un colpo d'occhio ! - Copyright ORBIFLY Dicembre 2007 - Disclaimer

ORBIFLY MET'MAP TEAM :

Programmazione e sviluppo : Alexandra Zaïnal
Concezione : Baudouin d'Aumeries
Aiuto per la programmazione : Marc-Olivier Méhu
Supporto tecnico e logistico : Manuel Goepfert
Aiuto per la traduzione : Arnaldo La Scala

Contatto : metmap@orbifly.com




FONTI E CREDITI :

   NOAA